createdAt,value
2018-03-04T00:00:19.482Z,248.43
2018-03-04T00:02:47.009Z,276.43
2018-03-04T00:05:15.259Z,531.30
2018-03-04T00:07:42.806Z,272.63
2018-03-04T00:10:10.287Z,440.43
2018-03-04T00:12:38.567Z,333.13
2018-03-04T00:15:06.052Z,311.80
2018-03-04T00:17:33.563Z,332.70
2018-03-04T00:20:01.079Z,304.07
2018-03-04T00:22:40.310Z,233.00
2018-03-04T00:25:07.791Z,291.40
2018-03-04T00:27:35.287Z,270.37
2018-03-04T00:30:03.559Z,299.17
2018-03-04T00:32:31.087Z,338.23
2018-03-04T00:34:58.572Z,278.40
2018-03-04T00:37:26.109Z,257.63
2018-03-04T00:39:53.580Z,344.17
2018-03-04T00:42:21.082Z,346.10
2018-03-04T00:44:48.593Z,228.13
2018-03-04T00:47:16.076Z,236.60
2018-03-04T00:49:43.592Z,357.07
2018-03-04T00:52:11.088Z,225.37
2018-03-04T00:54:38.632Z,224.77
2018-03-04T00:57:06.112Z,259.80
2018-03-04T00:59:34.410Z,224.17
2018-03-04T01:02:01.884Z,242.40
2018-03-04T01:04:29.389Z,316.10
2018-03-04T01:06:56.867Z,270.97
2018-03-04T01:09:25.150Z,205.57
2018-03-04T01:11:53.382Z,220.13
2018-03-04T01:14:20.903Z,202.73
2018-03-04T01:16:48.383Z,254.37
2018-03-04T01:19:15.912Z,241.13
2018-03-04T01:21:43.391Z,209.10
2018-03-04T01:24:10.894Z,187.87
2018-03-04T01:26:39.170Z,302.87
2018-03-04T01:29:07.564Z,239.20
2018-03-04T01:31:35.042Z,332.03
2018-03-04T01:34:02.520Z,271.27
2018-03-04T01:36:30.039Z,197.83
2018-03-04T01:38:58.290Z,306.77
2018-03-04T01:41:25.817Z,263.60
2018-03-04T01:43:54.099Z,295.07
2018-03-04T01:46:21.614Z,266.17
2018-03-04T01:48:49.227Z,289.63
2018-03-04T01:51:16.749Z,278.93
2018-03-04T01:53:44.239Z,224.60
2018-03-04T01:56:11.760Z,326.70
2018-03-04T01:58:39.236Z,264.73
2018-03-04T02:01:06.734Z,248.90
2018-03-04T02:03:34.218Z,266.53
2018-03-04T02:06:02.494Z,268.07
2018-03-04T02:08:30.742Z,259.73
2018-03-04T02:10:58.249Z,231.93
2018-03-04T02:13:25.776Z,233.50
2018-03-04T02:15:54.048Z,304.67
2018-03-04T02:18:21.546Z,237.60
2018-03-04T02:20:49.057Z,403.27
2018-03-04T02:23:16.545Z,301.67
2018-03-04T02:25:44.044Z,225.33
2018-03-04T02:28:11.518Z,182.70
2018-03-04T02:30:39.030Z,220.83
2018-03-04T02:33:06.506Z,217.83
2018-03-04T02:35:34.036Z,326.47
2018-03-04T02:38:01.557Z,187.80
2018-03-04T02:40:29.247Z,272.07
2018-03-04T02:42:56.708Z,317.67
2018-03-04T02:45:24.966Z,251.03
2018-03-04T02:47:52.500Z,258.87
2018-03-04T02:50:19.979Z,244.83
2018-03-04T02:52:47.485Z,162.73
2018-03-04T02:55:15.009Z,212.00
2018-03-04T02:57:43.286Z,314.20
2018-03-04T03:00:11.544Z,207.37
2018-03-04T03:02:39.075Z,269.63
2018-03-04T03:05:06.564Z,244.07
2018-03-04T03:07:34.866Z,278.87
2018-03-04T03:10:03.124Z,175.97
2018-03-04T03:12:31.411Z,203.67
2018-03-04T03:14:58.871Z,193.93
2018-03-04T03:17:27.135Z,236.37
2018-03-04T03:19:55.449Z,211.80
2018-03-04T03:22:22.966Z,289.33
2018-03-04T03:24:51.698Z,170.70
2018-03-04T03:27:19.208Z,211.63
2018-03-04T03:29:46.699Z,176.20
2018-03-04T03:32:14.221Z,171.33
2018-03-04T03:34:41.799Z,241.57
2018-03-04T03:37:10.481Z,302.97
2018-03-04T03:39:38.736Z,233.57
2018-03-04T03:42:06.202Z,211.70
2018-03-04T03:44:33.716Z,162.50
2018-03-04T03:47:01.207Z,174.70
2018-03-04T03:49:28.734Z,208.50
2018-03-04T03:51:56.216Z,165.40
2018-03-04T03:54:23.864Z,188.57
2018-03-04T03:56:51.342Z,194.73
2018-03-04T03:59:18.816Z,213.93
2018-03-04T04:01:46.316Z,243.73
2018-03-04T04:04:13.801Z,218.57
2018-03-04T04:06:41.303Z,272.13
2018-03-04T04:09:09.546Z,236.40
2018-03-04T04:11:37.044Z,216.97
2018-03-04T04:14:05.308Z,294.43
2018-03-04T04:16:33.562Z,218.33
2018-03-04T04:19:01.049Z,188.87
2018-03-04T04:21:29.601Z,212.47
2018-03-04T04:23:57.087Z,210.23
2018-03-04T04:26:25.377Z,222.60
2018-03-04T04:28:52.848Z,184.20
2018-03-04T04:31:20.357Z,190.10
2018-03-04T04:33:47.828Z,182.37
2018-03-04T04:36:16.099Z,282.00
2018-03-04T04:38:44.355Z,192.70
2018-03-04T04:41:11.864Z,160.13
2018-03-04T04:43:39.372Z,194.10
2018-03-04T04:46:06.871Z,207.90
2018-03-04T04:48:34.361Z,176.37
2018-03-04T04:51:01.864Z,154.70
2018-03-04T04:53:29.340Z,206.80
2018-03-04T04:55:57.639Z,211.13
2018-03-04T04:58:25.116Z,249.27
2018-03-04T05:00:52.676Z,207.73
2018-03-04T05:03:20.161Z,162.43
2018-03-04T05:05:47.652Z,185.43
2018-03-04T05:08:15.993Z,184.47
2018-03-04T05:10:43.481Z,180.10
2018-03-04T05:13:11.777Z,206.07
2018-03-04T05:15:39.275Z,213.70
2018-03-04T05:18:06.761Z,277.63
2018-03-04T05:20:34.364Z,234.87
2018-03-04T05:23:01.882Z,174.93
2018-03-04T05:25:30.128Z,147.50
2018-03-04T05:27:57.655Z,175.10
2018-03-04T05:30:25.150Z,167.00
2018-03-04T05:32:52.666Z,195.20
2018-03-04T05:35:20.174Z,152.70
2018-03-04T05:37:47.691Z,211.00
2018-03-04T05:40:15.182Z,192.93
2018-03-04T05:42:42.808Z,193.20
2018-03-04T05:45:10.314Z,226.20
2018-03-04T05:47:38.175Z,216.77
2018-03-04T05:50:05.701Z,247.77
2018-03-04T05:52:33.207Z,263.10
2018-03-04T05:55:00.706Z,188.50
2018-03-04T05:57:28.175Z,189.43
2018-03-04T05:59:55.723Z,184.27
2018-03-04T06:02:23.220Z,200.67
2018-03-04T06:04:50.714Z,161.43
2018-03-04T06:07:18.956Z,189.63
2018-03-04T06:09:46.456Z,185.33
2018-03-04T06:12:14.706Z,218.20
2018-03-04T06:14:42.213Z,138.73
2018-03-04T06:17:09.716Z,166.27
2018-03-04T06:19:37.241Z,170.00
2018-03-04T06:22:04.712Z,234.37
2018-03-04T06:24:32.247Z,202.60
2018-03-04T06:26:59.749Z,186.37
2018-03-04T06:29:27.257Z,186.93
2018-03-04T06:31:54.749Z,162.97
2018-03-04T06:34:22.271Z,178.37
2018-03-04T06:36:49.747Z,185.00
2018-03-04T06:39:17.304Z,194.23
2018-03-04T06:41:44.790Z,155.77
2018-03-04T06:44:12.301Z,215.97
2018-03-04T06:46:40.566Z,187.37
2018-03-04T06:49:08.066Z,161.93
2018-03-04T06:51:35.545Z,174.63
2018-03-04T06:54:03.039Z,167.93
2018-03-04T06:56:30.511Z,180.47
2018-03-04T06:58:58.026Z,160.77
2018-03-04T07:01:25.552Z,147.13
2018-03-04T07:03:53.077Z,149.77
2018-03-04T07:06:20.569Z,153.50
2018-03-04T07:08:48.085Z,138.23
2018-03-04T07:11:16.363Z,132.47
2018-03-04T07:13:44.737Z,142.70
2018-03-04T07:16:13.001Z,113.10
2018-03-04T07:18:41.325Z,82.77
2018-03-04T07:21:08.834Z,97.90
2018-03-04T07:23:37.082Z,83.47
2018-03-04T07:26:04.580Z,84.40
2018-03-04T07:28:32.880Z,103.80
2018-03-04T07:31:00.492Z,72.90
2018-03-04T07:33:27.993Z,89.93
2018-03-04T07:35:55.489Z,71.17
2018-03-04T07:38:23.005Z,77.83
2018-03-04T07:40:50.512Z,52.90
2018-03-04T07:43:18.006Z,60.27
2018-03-04T07:45:46.265Z,48.63
2018-03-04T07:48:13.761Z,53.30
2018-03-04T07:50:41.293Z,65.13
2018-03-04T07:53:08.773Z,66.03
2018-03-04T07:55:36.248Z,53.70
2018-03-04T07:58:03.744Z,52.53
2018-03-04T08:00:31.233Z,52.50
2018-03-04T08:02:59.530Z,47.80
2018-03-04T08:05:27.010Z,47.10
2018-03-04T08:07:54.527Z,45.93
2018-03-04T08:10:22.768Z,53.07
2018-03-04T08:12:50.291Z,46.80
2018-03-04T08:15:17.764Z,44.43
2018-03-04T08:17:45.276Z,51.63
2018-03-04T08:20:13.584Z,44.33
2018-03-04T08:22:41.086Z,41.17
2018-03-04T08:25:20.505Z,35.00
2018-03-04T08:27:59.999Z,34.93
2018-03-04T08:30:27.537Z,34.57
2018-03-04T08:32:54.989Z,33.67
2018-03-04T08:35:23.237Z,35.57
2018-03-04T08:37:50.809Z,34.43
2018-03-04T08:40:18.313Z,35.60
2018-03-04T08:42:45.792Z,42.03
2018-03-04T08:45:13.303Z,39.83
2018-03-04T08:47:40.807Z,42.27
2018-03-04T08:50:08.310Z,41.63
2018-03-04T08:52:36.564Z,36.60
2018-03-04T08:55:04.106Z,33.83
2018-03-04T08:57:31.612Z,39.87
2018-03-04T08:59:59.881Z,34.90
2018-03-04T09:02:27.364Z,34.70
2018-03-04T09:04:54.904Z,33.60
2018-03-04T09:07:23.194Z,31.13
2018-03-04T09:09:51.486Z,29.60
2018-03-04T09:12:18.973Z,32.77
2018-03-04T09:14:46.518Z,26.73
2018-03-04T09:17:14.744Z,29.57
2018-03-04T09:19:43.073Z,28.83
2018-03-04T09:22:11.268Z,29.87
2018-03-04T09:24:38.855Z,25.73
2018-03-04T09:27:07.846Z,28.80
2018-03-04T09:29:35.369Z,24.57
2018-03-04T09:32:02.858Z,27.40
2018-03-04T09:34:30.390Z,24.53
2018-03-04T09:36:57.850Z,24.63
2018-03-04T09:39:25.751Z,24.80
2018-03-04T09:41:54.011Z,23.67
2018-03-04T09:44:21.499Z,26.80
2018-03-04T09:46:49.768Z,24.50
2018-03-04T09:49:18.019Z,22.80
2018-03-04T09:51:45.534Z,24.30
2018-03-04T09:54:13.080Z,23.57
2018-03-04T09:56:40.596Z,23.17
2018-03-04T09:59:08.078Z,24.30
2018-03-04T10:01:36.674Z,21.33
2018-03-04T10:04:04.929Z,21.10
2018-03-04T10:06:33.210Z,23.97
2018-03-04T10:09:01.464Z,23.93
2018-03-04T10:11:30.053Z,19.53
2018-03-04T10:13:57.529Z,22.13
2018-03-04T10:16:25.806Z,23.50
2018-03-04T10:18:53.351Z,18.43
2018-03-04T10:21:20.895Z,22.57
2018-03-04T10:23:48.394Z,21.50
2018-03-04T10:26:17.465Z,20.50
2018-03-04T10:28:45.026Z,20.90
2018-03-04T10:31:12.566Z,21.00
2018-03-04T10:33:40.062Z,19.70
2018-03-04T10:36:07.580Z,21.53
2018-03-04T10:38:35.087Z,19.83
2018-03-04T10:41:02.597Z,28.60
2018-03-04T10:43:30.094Z,21.87
2018-03-04T10:45:57.592Z,21.00
2018-03-04T10:48:25.088Z,19.43
2018-03-04T10:50:52.643Z,19.90
2018-03-04T10:53:20.117Z,21.47
2018-03-04T10:55:48.419Z,21.17
2018-03-04T10:58:15.928Z,20.33
2018-03-04T11:00:45.248Z,20.83
2018-03-04T11:03:16.168Z,21.60
2018-03-04T11:05:43.710Z,21.00
2018-03-04T11:08:11.214Z,20.57
2018-03-04T11:10:38.761Z,19.20
2018-03-04T11:13:06.313Z,18.20
2018-03-04T11:15:33.793Z,19.33
2018-03-04T11:18:02.109Z,19.87
2018-03-04T11:20:29.616Z,19.33
2018-03-04T11:22:57.119Z,21.37
2018-03-04T11:25:24.762Z,22.30
2018-03-04T11:27:52.259Z,20.57
2018-03-04T11:30:19.727Z,19.33
2018-03-04T11:32:47.251Z,18.73
2018-03-04T11:35:14.726Z,19.50
2018-03-04T11:37:42.229Z,20.73
2018-03-04T11:40:10.506Z,21.60
2018-03-04T11:42:39.615Z,20.53
2018-03-04T11:45:07.093Z,50.13
2018-03-04T11:47:35.373Z,19.80
2018-03-04T11:50:02.900Z,17.73
2018-03-04T11:52:32.480Z,18.30
2018-03-04T11:54:59.999Z,17.03
2018-03-04T11:57:27.535Z,17.17
2018-03-04T11:59:55.009Z,16.30
2018-03-04T12:02:23.280Z,17.33
2018-03-04T12:04:50.810Z,15.63
2018-03-04T12:07:19.115Z,16.77
2018-03-04T12:09:46.635Z,17.23
2018-03-04T12:12:14.154Z,16.87
2018-03-04T12:14:41.723Z,14.00
2018-03-04T12:17:09.185Z,15.40
2018-03-04T12:19:36.701Z,16.67
2018-03-04T12:22:04.187Z,15.03
2018-03-04T12:24:31.708Z,15.60
2018-03-04T12:26:59.205Z,15.03
2018-03-04T12:29:26.734Z,17.33
2018-03-04T12:31:54.265Z,16.30
2018-03-04T12:34:23.591Z,18.33
2018-03-04T12:36:51.196Z,16.20
2018-03-04T12:39:18.708Z,18.67
2018-03-04T12:41:46.219Z,17.27
2018-03-04T12:44:13.802Z,19.90
2018-03-04T12:46:41.292Z,18.33
2018-03-04T12:49:08.840Z,18.20
2018-03-04T12:51:36.393Z,16.00
2018-03-04T12:54:03.942Z,17.40
2018-03-04T12:56:32.204Z,16.73
2018-03-04T12:58:59.749Z,19.70
2018-03-04T13:01:27.298Z,17.20
2018-03-04T13:03:54.829Z,15.90
2018-03-04T13:06:22.349Z,16.93
2018-03-04T13:08:49.852Z,19.57
2018-03-04T13:11:17.442Z,18.50
2018-03-04T13:13:44.938Z,14.40
2018-03-04T13:16:12.483Z,18.07
2018-03-04T13:18:40.799Z,15.30
2018-03-04T13:21:08.328Z,14.07
2018-03-04T13:23:36.633Z,14.57
2018-03-04T13:26:04.866Z,16.20
2018-03-04T13:28:32.350Z,15.00
2018-03-04T13:31:00.635Z,15.23
2018-03-04T13:33:28.126Z,14.40
2018-03-04T13:35:55.647Z,16.37
2018-03-04T13:38:23.186Z,16.80
2018-03-04T13:40:51.465Z,16.67
2018-03-04T13:43:19.715Z,16.67
2018-03-04T13:45:47.241Z,15.93
2018-03-04T13:48:14.702Z,21.30
2018-03-04T13:50:42.236Z,20.33
2018-03-04T13:53:09.716Z,16.43
2018-03-04T13:55:37.256Z,19.83
2018-03-04T13:58:04.753Z,18.40
2018-03-04T14:00:32.277Z,21.00
2018-03-04T14:02:59.801Z,19.73
2018-03-04T14:05:27.306Z,27.27
2018-03-04T14:07:54.847Z,21.73
2018-03-04T14:10:22.354Z,19.90
2018-03-04T14:12:49.828Z,22.80
2018-03-04T14:15:17.492Z,21.43
2018-03-04T14:17:44.974Z,21.37
2018-03-04T14:20:12.468Z,24.63
2018-03-04T14:22:39.957Z,22.33
2018-03-04T14:25:08.076Z,21.53
2018-03-04T14:27:35.565Z,24.70
2018-03-04T14:30:03.076Z,30.60
2018-03-04T14:32:30.567Z,23.50
2018-03-04T14:34:58.093Z,22.53
2018-03-04T14:37:26.347Z,31.43
2018-03-04T14:39:54.616Z,22.77
2018-03-04T14:42:22.097Z,22.10
2018-03-04T14:44:50.363Z,23.20
2018-03-04T14:47:18.605Z,27.37
2018-03-04T14:49:46.261Z,26.13
2018-03-04T14:52:13.845Z,24.53
2018-03-04T14:54:41.354Z,25.33
2018-03-04T14:57:08.838Z,23.67
2018-03-04T14:59:36.322Z,25.10
2018-03-04T15:02:03.819Z,27.50
2018-03-04T15:04:31.341Z,23.00
2018-03-04T15:06:58.886Z,25.77
2018-03-04T15:09:26.376Z,25.63
2018-03-04T15:11:54.684Z,26.00
2018-03-04T15:14:22.152Z,22.10
2018-03-04T15:16:49.656Z,26.00
2018-03-04T15:19:17.916Z,19.37
2018-03-04T15:21:45.471Z,22.80
2018-03-04T15:24:12.948Z,20.20
2018-03-04T15:26:40.426Z,18.63
2018-03-04T15:29:07.925Z,23.43
2018-03-04T15:31:35.464Z,22.30
2018-03-04T15:34:03.015Z,23.73
2018-03-04T15:36:30.549Z,24.27
2018-03-04T15:38:58.118Z,23.23
2018-03-04T15:41:25.629Z,24.23
2018-03-04T15:43:53.109Z,23.10
2018-03-04T15:46:20.639Z,20.00
2018-03-04T15:48:48.098Z,21.87
2018-03-04T15:51:15.623Z,27.43
2018-03-04T15:53:43.087Z,22.67
2018-03-04T15:56:10.605Z,22.67
2018-03-04T15:58:38.082Z,26.50
2018-03-04T16:01:06.377Z,23.80
2018-03-04T16:03:33.852Z,23.10
2018-03-04T16:06:01.353Z,24.33
2018-03-04T16:08:29.663Z,23.43
2018-03-04T16:10:57.276Z,23.77
2018-03-04T16:13:24.751Z,23.83
2018-03-04T16:15:52.233Z,21.37
2018-03-04T16:18:19.750Z,22.73
2018-03-04T16:20:47.250Z,30.27
2018-03-04T16:23:14.760Z,36.93
2018-03-04T16:25:42.257Z,30.00
2018-03-04T16:28:10.541Z,25.60
2018-03-04T16:30:38.025Z,25.27
2018-03-04T16:33:05.536Z,26.93
2018-03-04T16:35:33.893Z,29.83
2018-03-04T16:38:01.392Z,26.33
2018-03-04T16:40:28.874Z,26.90
2018-03-04T16:42:56.372Z,29.77
2018-03-04T16:45:24.057Z,31.30
2018-03-04T16:47:51.797Z,36.37
2018-03-04T16:50:19.248Z,26.63
2018-03-04T16:52:46.752Z,32.43
2018-03-04T16:55:14.239Z,27.13
2018-03-04T16:57:41.774Z,24.03
2018-03-04T17:00:09.268Z,22.40
2018-03-04T17:02:36.799Z,23.83
2018-03-04T17:05:04.280Z,24.87
2018-03-04T17:07:31.782Z,27.10
2018-03-04T17:10:00.035Z,30.73
2018-03-04T17:12:27.528Z,33.07
2018-03-04T17:14:55.809Z,28.30
2018-03-04T17:17:23.446Z,24.27
2018-03-04T17:19:51.721Z,30.07
2018-03-04T17:22:19.840Z,32.17
2018-03-04T17:24:47.355Z,24.87
2018-03-04T17:27:15.623Z,29.43
2018-03-04T17:29:43.126Z,25.60
2018-03-04T17:32:10.634Z,21.50
2018-03-04T17:34:38.150Z,23.47
2018-03-04T17:37:05.672Z,21.57
2018-03-04T17:39:33.340Z,24.60
2018-03-04T17:42:00.823Z,19.87
2018-03-04T17:44:28.293Z,19.17
2018-03-04T17:46:55.834Z,17.40
2018-03-04T17:49:23.300Z,17.00
2018-03-04T17:51:50.822Z,23.03
2018-03-04T17:54:18.278Z,17.73
2018-03-04T17:56:46.584Z,13.60
2018-03-04T17:59:14.075Z,12.53
2018-03-04T18:01:41.578Z,17.07
2018-03-04T18:04:09.074Z,14.13
2018-03-04T18:06:36.579Z,17.03
2018-03-04T18:09:04.834Z,15.20
2018-03-04T18:11:32.353Z,10.63
2018-03-04T18:13:59.856Z,12.27
2018-03-04T18:16:27.391Z,11.13
2018-03-04T18:18:54.861Z,9.80
2018-03-04T18:21:22.342Z,10.57
2018-03-04T18:23:50.611Z,10.33
2018-03-04T18:26:18.138Z,12.93
2018-03-04T18:28:46.249Z,9.87
2018-03-04T18:31:13.766Z,14.50
2018-03-04T18:33:41.254Z,14.33
2018-03-04T18:36:08.795Z,14.23
2018-03-04T18:38:36.278Z,15.20
2018-03-04T18:41:03.784Z,19.23
2018-03-04T18:43:31.304Z,16.87
2018-03-04T18:45:59.588Z,16.10
2018-03-04T18:48:27.865Z,14.83
2018-03-04T18:50:56.142Z,18.10
2018-03-04T18:53:24.400Z,21.03
2018-03-04T18:55:51.976Z,20.33
2018-03-04T18:58:20.296Z,21.50
2018-03-04T19:00:48.625Z,23.43
2018-03-04T19:03:16.930Z,20.27
2018-03-04T19:05:44.409Z,24.67
2018-03-04T19:08:11.910Z,24.10
2018-03-04T19:10:40.148Z,18.73
2018-03-04T19:13:07.648Z,16.47
2018-03-04T19:15:35.917Z,23.80
2018-03-04T19:18:03.442Z,18.30
2018-03-04T19:20:30.924Z,23.33
2018-03-04T19:22:58.470Z,18.33
2018-03-04T19:25:25.948Z,23.27
2018-03-04T19:27:53.482Z,18.77
2018-03-04T19:30:20.972Z,18.50
2018-03-04T19:32:49.267Z,19.63
2018-03-04T19:35:16.752Z,21.33
2018-03-04T19:37:44.281Z,22.13
2018-03-04T19:40:12.540Z,24.37
2018-03-04T19:42:40.814Z,20.67
2018-03-04T19:45:08.308Z,24.93
2018-03-04T19:47:35.834Z,27.47
2018-03-04T19:50:04.100Z,25.73
2018-03-04T19:52:31.616Z,24.30
2018-03-04T19:54:59.103Z,22.03
2018-03-04T19:57:26.609Z,19.37
2018-03-04T19:59:54.287Z,20.00
2018-03-04T20:02:21.786Z,21.73
2018-03-04T20:04:49.268Z,20.80
2018-03-04T20:07:17.566Z,23.17
2018-03-04T20:09:45.051Z,24.20
2018-03-04T20:12:12.590Z,24.03
2018-03-04T20:14:40.142Z,21.40
2018-03-04T20:17:07.648Z,16.93
2018-03-04T20:19:35.128Z,16.73
2018-03-04T20:22:03.395Z,17.80
2018-03-04T20:24:30.932Z,19.07
2018-03-04T20:26:58.428Z,24.37
2018-03-04T20:29:26.719Z,25.03
2018-03-04T20:31:54.224Z,27.67
2018-03-04T20:34:21.729Z,22.93
2018-03-04T20:36:49.964Z,23.83
2018-03-04T20:39:17.529Z,26.57
2018-03-04T20:41:45.146Z,27.20
2018-03-04T20:44:12.652Z,29.93
2018-03-04T20:46:40.143Z,31.47
2018-03-04T20:49:07.680Z,30.77
2018-03-04T20:51:35.151Z,28.13
2018-03-04T20:54:03.456Z,30.53
2018-03-04T20:56:30.940Z,29.70
2018-03-04T20:58:58.441Z,28.80
2018-03-04T21:01:26.700Z,32.40
2018-03-04T21:03:54.978Z,30.67
2018-03-04T21:06:22.441Z,29.43
2018-03-04T21:08:49.953Z,31.83
2018-03-04T21:11:17.419Z,33.83
2018-03-04T21:13:44.945Z,31.07
2018-03-04T21:16:12.439Z,23.93
2018-03-04T21:18:39.947Z,30.63
2018-03-04T21:21:08.193Z,22.20
2018-03-04T21:23:35.783Z,27.60
2018-03-04T21:26:04.040Z,28.57
2018-03-04T21:28:31.560Z,31.10
2018-03-04T21:30:59.062Z,28.03
2018-03-04T21:33:27.347Z,27.57
2018-03-04T21:35:55.586Z,27.63
2018-03-04T21:38:23.076Z,33.97
2018-03-04T21:40:51.329Z,29.83
2018-03-04T21:43:18.845Z,29.40
2018-03-04T21:45:46.319Z,32.20
2018-03-04T21:48:13.808Z,28.07
2018-03-04T21:50:41.324Z,33.47
2018-03-04T21:53:08.827Z,33.87
2018-03-04T21:55:36.308Z,26.93
2018-03-04T21:58:04.584Z,30.90
2018-03-04T22:00:32.838Z,29.93
2018-03-04T22:03:00.323Z,27.70
2018-03-04T22:05:27.825Z,26.23
2018-03-04T22:07:55.384Z,32.30
2018-03-04T22:10:22.847Z,25.80
2018-03-04T22:12:50.339Z,24.97
2018-03-04T22:15:18.633Z,29.20
2018-03-04T22:17:46.115Z,25.27
2018-03-04T22:20:13.633Z,19.10
2018-03-04T22:22:41.130Z,18.50
2018-03-04T22:25:08.681Z,19.97
2018-03-04T22:27:36.140Z,17.33
2018-03-04T22:30:03.657Z,17.47
2018-03-04T22:32:31.919Z,17.03
2018-03-04T22:34:59.448Z,14.47
2018-03-04T22:37:26.929Z,15.97
2018-03-04T22:39:54.444Z,15.00
2018-03-04T22:42:21.922Z,19.37
2018-03-04T22:44:49.430Z,29.77
2018-03-04T22:47:17.684Z,16.33
2018-03-04T22:49:45.200Z,15.20
2018-03-04T22:52:12.765Z,11.50
2018-03-04T22:54:40.268Z,17.20
2018-03-04T22:57:07.743Z,15.90
2018-03-04T22:59:36.011Z,16.97
2018-03-04T23:02:03.807Z,13.40
2018-03-04T23:04:31.294Z,23.07
2018-03-04T23:06:58.771Z,14.90
2018-03-04T23:09:26.286Z,13.17
2018-03-04T23:11:53.792Z,11.93
2018-03-04T23:14:21.301Z,11.47
2018-03-04T23:16:48.784Z,15.33
2018-03-04T23:19:16.279Z,14.67
2018-03-04T23:21:43.764Z,17.63
2018-03-04T23:24:11.385Z,15.97
2018-03-04T23:26:38.847Z,17.37
2018-03-04T23:29:06.337Z,12.40
2018-03-04T23:31:33.856Z,14.83
2018-03-04T23:34:01.346Z,13.63
2018-03-04T23:36:29.611Z,11.57
2018-03-04T23:38:57.844Z,12.23
2018-03-04T23:41:25.337Z,11.73
2018-03-04T23:43:52.818Z,11.17
2018-03-04T23:46:21.087Z,10.93
2018-03-04T23:48:49.354Z,12.13
2018-03-04T23:51:17.622Z,10.50
2018-03-04T23:53:45.079Z,13.40
2018-03-04T23:56:13.350Z,12.50
2018-03-04T23:58:40.837Z,9.70
